createdAt,value
2023-03-10T00:01:23.367Z,98122.56
2023-03-10T00:04:28.536Z,98112.22
2023-03-10T00:07:31.417Z,98097.94
2023-03-10T00:10:38.239Z,98079.50
2023-03-10T00:13:43.167Z,98088.81
2023-03-10T00:16:45.898Z,98089.44
2023-03-10T00:19:51.635Z,98090.31
2023-03-10T00:22:54.994Z,98089.44
2023-03-10T00:26:08.606Z,98081.56
2023-03-10T00:29:12.863Z,98088.59
2023-03-10T00:32:15.561Z,98086.63
2023-03-10T00:35:38.097Z,98075.16
2023-03-10T00:38:42.393Z,98074.06
2023-03-10T00:41:49.585Z,98079.34
2023-03-10T00:45:07.816Z,98080.34
2023-03-10T00:48:10.513Z,98066.78
2023-03-10T00:51:13.272Z,98053.13
2023-03-10T00:54:18.298Z,98039.81
2023-03-10T00:57:24.474Z,98050.94
2023-03-10T01:00:27.454Z,98039.09
2023-03-10T01:03:36.656Z,98044.78
2023-03-10T01:06:40.018Z,98041.09
2023-03-10T01:09:42.700Z,98041.44
2023-03-10T01:12:46.940Z,98033.94
2023-03-10T01:15:50.850Z,98038.63
2023-03-10T01:18:56.534Z,98031.63
2023-03-10T01:22:05.527Z,98023.88
2023-03-10T01:25:13.986Z,98012.44
2023-03-10T01:28:25.805Z,97996.78
2023-03-10T01:31:28.620Z,97999.38
2023-03-10T01:34:45.308Z,97998.91
2023-03-10T01:37:50.574Z,97995.34
2023-03-10T01:40:53.375Z,97981.06
2023-03-10T01:43:59.513Z,97979.63
2023-03-10T01:47:05.390Z,97971.72
2023-03-10T01:50:13.722Z,97956.22
2023-03-10T01:53:22.026Z,97954.97
2023-03-10T01:56:25.142Z,97958.94
2023-03-10T01:59:42.247Z,97950.06
2023-03-10T02:02:51.242Z,97942.94
2023-03-10T02:05:57.168Z,97942.19
2023-03-10T02:09:02.689Z,97945.75
2023-03-10T02:12:14.321Z,97935.91
2023-03-10T02:15:24.556Z,97935.56
2023-03-10T02:18:29.877Z,97909.50
2023-03-10T02:21:45.039Z,97933.84
2023-03-10T02:24:55.217Z,97933.22
2023-03-10T02:27:59.855Z,97929.66
2023-03-10T02:31:03.309Z,97912.31
2023-03-10T02:34:06.760Z,97920.31
2023-03-10T02:37:28.692Z,97933.97
2023-03-10T02:40:45.906Z,97907.28
2023-03-10T02:43:55.778Z,97906.63
2023-03-10T02:47:12.555Z,97903.19
2023-03-10T02:50:19.049Z,97899.75
2023-03-10T02:53:29.737Z,97873.81
2023-03-10T02:56:34.326Z,97890.75
2023-03-10T02:59:38.599Z,97888.06
2023-03-10T03:02:48.538Z,97886.34
2023-03-10T03:05:52.173Z,97875.78
2023-03-10T03:09:08.277Z,97894.09
2023-03-10T03:12:11.104Z,97887.81
2023-03-10T03:15:18.477Z,97884.72
2023-03-10T03:18:24.256Z,97896.41
2023-03-10T03:21:29.250Z,97882.97
2023-03-10T03:24:38.092Z,97878.72
2023-03-10T03:27:41.099Z,97871.31
2023-03-10T03:30:46.084Z,97868.13
2023-03-10T03:34:13.881Z,97874.94
2023-03-10T03:37:25.814Z,97873.81
2023-03-10T03:40:33.550Z,97870.38
2023-03-10T03:43:36.368Z,97868.13
2023-03-10T03:46:40.451Z,97861.84
2023-03-10T03:49:51.334Z,97806.28
2023-03-10T03:53:02.145Z,97872.69
2023-03-10T03:56:11.083Z,97858.78
2023-03-10T03:59:13.856Z,97864.19
2023-03-10T04:02:18.455Z,97856.06
2023-03-10T04:05:21.184Z,97858.50
2023-03-10T04:08:31.317Z,97847.66
2023-03-10T04:11:34.177Z,97844.97
2023-03-10T04:14:42.914Z,97841.34
2023-03-10T04:17:58.841Z,97842.31
2023-03-10T04:21:04.855Z,97834.03
2023-03-10T04:24:11.801Z,97840.31
2023-03-10T04:27:20.264Z,97837.97
2023-03-10T04:30:29.771Z,97833.94
2023-03-10T04:33:36.991Z,97840.81
2023-03-10T04:36:39.817Z,97841.06
2023-03-10T04:39:47.816Z,97854.59
2023-03-10T04:42:50.516Z,97860.88
2023-03-10T04:46:10.370Z,97872.56
2023-03-10T04:49:17.069Z,97860.50
2023-03-10T04:52:24.413Z,97860.75
2023-03-10T04:55:27.239Z,97873.41
2023-03-10T04:58:35.947Z,97865.53
2023-03-10T05:01:39.273Z,97849.59
2023-03-10T05:04:43.671Z,97852.28
2023-03-10T05:07:46.419Z,97851.44
2023-03-10T05:11:13.798Z,97867.16
2023-03-10T05:14:17.738Z,97871.72
2023-03-10T05:20:38.781Z,97857.22
2023-03-10T05:23:44.665Z,97864.00
2023-03-10T05:26:47.305Z,97861.53
2023-03-10T05:29:53.137Z,97856.00
2023-03-10T05:32:56.298Z,97847.75
2023-03-10T05:36:14.696Z,97842.59
2023-03-10T05:39:18.372Z,97838.03
2023-03-10T05:42:21.441Z,97836.06
2023-03-10T05:45:24.144Z,97831.41
2023-03-10T05:48:30.055Z,97834.97
2023-03-10T05:51:36.645Z,97819.97
2023-03-10T05:54:39.324Z,97814.94
2023-03-10T05:57:42.496Z,97811.63
2023-03-10T06:00:45.169Z,97810.94
2023-03-10T06:03:48.386Z,97807.06
2023-03-10T06:06:52.516Z,97803.50
2023-03-10T06:09:55.849Z,97793.56
2023-03-10T06:12:58.656Z,97803.50
2023-03-10T06:16:03.836Z,97785.06
2023-03-10T06:19:06.645Z,97808.44
2023-03-10T06:22:10.678Z,97797.22
2023-03-10T06:25:14.195Z,97800.13
2023-03-10T06:28:16.862Z,97805.75
2023-03-10T06:31:27.583Z,97792.66
2023-03-10T06:34:34.281Z,97797.44
2023-03-10T06:37:42.030Z,97796.63
2023-03-10T06:40:44.728Z,97791.44
2023-03-10T06:44:06.646Z,97793.34
2023-03-10T06:47:09.322Z,97786.69
2023-03-10T06:50:15.466Z,97789.66
2023-03-10T06:53:29.364Z,97791.63
2023-03-10T06:56:41.389Z,97777.22
2023-03-10T06:59:44.112Z,97764.41
2023-03-10T07:02:46.774Z,97774.25
2023-03-10T07:05:52.198Z,97763.88
2023-03-10T07:08:59.434Z,97760.50
2023-03-10T07:12:09.290Z,97761.16
2023-03-10T07:15:15.045Z,97753.22
2023-03-10T07:18:17.967Z,97759.81
2023-03-10T07:21:23.774Z,97770.06
2023-03-10T07:24:27.838Z,97763.78
2023-03-10T07:27:30.896Z,97761.66
2023-03-10T07:30:42.324Z,97764.97
2023-03-10T07:33:45.059Z,97760.97
2023-03-10T07:36:51.433Z,97768.66
2023-03-10T07:39:56.549Z,97771.38
2023-03-10T07:42:59.279Z,97764.09
2023-03-10T07:46:13.835Z,97770.81
2023-03-10T07:49:16.523Z,97765.31
2023-03-10T07:52:19.572Z,97766.34
2023-03-10T07:55:24.028Z,97754.66
2023-03-10T07:58:26.826Z,97750.41
2023-03-10T08:01:29.628Z,97751.84
2023-03-10T08:04:34.942Z,97756.28
2023-03-10T08:07:40.260Z,97757.13
2023-03-10T08:10:44.323Z,97750.84
2023-03-10T08:13:47.947Z,97733.44
2023-03-10T08:16:57.087Z,97750.16
2023-03-10T08:20:00.307Z,97744.72
2023-03-10T08:23:03.871Z,97742.59
2023-03-10T08:26:13.817Z,97739.28
2023-03-10T08:29:16.796Z,97747.16
2023-03-10T08:32:20.191Z,97742.44
2023-03-10T08:35:26.210Z,97746.00
2023-03-10T08:38:29.000Z,97737.56
2023-03-10T08:41:37.467Z,97725.56
2023-03-10T08:44:47.835Z,97734.84
2023-03-10T08:47:51.390Z,97725.84
2023-03-10T08:50:54.074Z,97729.72
2023-03-10T08:53:57.118Z,97740.59
2023-03-10T08:57:06.682Z,97748.75
2023-03-10T09:00:18.069Z,97758.31
2023-03-10T09:03:28.951Z,97748.47
2023-03-10T09:06:38.443Z,97769.19
2023-03-10T09:09:41.134Z,97775.31
2023-03-10T09:12:45.260Z,97759.16
2023-03-10T09:15:52.822Z,97777.41
2023-03-10T09:18:55.973Z,97766.81
2023-03-10T09:21:59.368Z,97799.91
2023-03-10T09:25:02.069Z,97801.63
2023-03-10T09:28:09.349Z,97800.03
2023-03-10T09:31:17.880Z,97806.75
2023-03-10T09:34:20.592Z,97805.94
2023-03-10T09:37:23.290Z,97808.25
2023-03-10T09:40:26.446Z,97808.84
2023-03-10T09:43:39.254Z,97804.03
2023-03-10T09:47:02.203Z,97789.16
2023-03-10T09:50:23.415Z,97795.91
2023-03-10T09:53:43.998Z,97783.59
2023-03-10T09:56:46.635Z,97783.50
2023-03-10T09:59:56.011Z,97786.31
2023-03-10T10:03:13.842Z,97785.03
2023-03-10T10:06:20.745Z,97785.34
2023-03-10T10:09:28.954Z,97782.38
2023-03-10T10:12:31.632Z,97783.69
2023-03-10T10:15:44.453Z,97769.66
2023-03-10T10:19:10.855Z,97791.28
2023-03-10T10:22:24.704Z,97780.56
2023-03-10T10:25:32.168Z,97784.13
2023-03-10T10:28:42.764Z,97779.88
2023-03-10T10:32:04.495Z,97783.97
2023-03-10T10:35:16.320Z,97774.84
2023-03-10T10:38:26.311Z,97782.59
2023-03-10T10:41:33.169Z,97770.59
2023-03-10T10:44:47.143Z,97780.34
2023-03-10T10:47:52.512Z,97782.88
2023-03-10T10:50:57.862Z,97788.91
2023-03-10T10:54:03.067Z,97793.16
2023-03-10T10:57:18.829Z,97786.28
2023-03-10T11:00:27.282Z,97778.63
2023-03-10T11:03:36.920Z,97778.50
2023-03-10T11:06:40.013Z,97783.44
2023-03-10T11:09:42.989Z,97759.22
2023-03-10T11:13:16.931Z,97775.50
2023-03-10T11:16:24.709Z,97768.50
2023-03-10T11:19:38.942Z,97774.25
2023-03-10T11:22:45.893Z,97769.59
2023-03-10T11:25:56.927Z,97778.78
2023-03-10T11:29:06.288Z,97774.19
2023-03-10T11:32:19.257Z,97785.31
2023-03-10T11:35:28.360Z,97776.63
2023-03-10T11:38:38.257Z,97769.53
2023-03-10T11:41:47.655Z,97784.22
2023-03-10T11:45:23.697Z,97762.94
2023-03-10T11:48:39.480Z,97771.38
2023-03-10T11:51:47.165Z,97763.94
2023-03-10T11:54:54.459Z,97741.34
2023-03-10T11:58:07.179Z,97762.38
2023-03-10T12:01:14.815Z,97756.69
2023-03-10T12:04:22.569Z,97758.25
2023-03-10T12:07:30.758Z,97752.69
2023-03-10T12:10:40.120Z,97754.47
2023-03-10T12:13:46.146Z,97750.81
2023-03-10T12:16:50.103Z,97748.50
2023-03-10T12:20:28.024Z,97757.25
2023-03-10T12:23:41.070Z,97750.47
2023-03-10T12:27:05.434Z,97753.38
2023-03-10T12:30:41.477Z,97759.72
2023-03-10T12:33:55.063Z,97753.00
2023-03-10T12:37:07.147Z,97770.91
2023-03-10T12:40:50.851Z,97769.41
2023-03-10T12:44:00.520Z,97761.44
2023-03-10T12:47:21.344Z,97752.16
2023-03-10T12:50:36.955Z,97743.72
2023-03-10T12:53:47.035Z,97747.34
2023-03-10T12:57:00.318Z,97739.56
2023-03-10T13:00:12.434Z,97733.03
2023-03-10T13:03:29.063Z,97726.59
2023-03-10T13:06:36.478Z,97722.16
2023-03-10T13:09:43.614Z,97725.25
2023-03-10T13:12:51.260Z,97730.63
2023-03-10T13:16:00.246Z,97728.81
2023-03-10T13:19:14.284Z,97738.38
2023-03-10T13:22:18.151Z,97739.78
2023-03-10T13:25:27.294Z,97735.66
2023-03-10T13:28:35.196Z,97721.53
2023-03-10T13:31:38.012Z,97746.25
2023-03-10T13:34:40.765Z,97739.16
2023-03-10T13:37:43.424Z,97744.13
2023-03-10T13:40:48.328Z,97732.25
2023-03-10T13:43:55.035Z,97725.34
2023-03-10T13:47:00.648Z,97740.72
2023-03-10T13:50:04.160Z,97734.06
2023-03-10T13:53:06.815Z,97742.50
2023-03-10T13:56:21.731Z,97731.41
2023-03-10T13:59:31.084Z,97734.44
2023-03-10T14:02:36.672Z,97736.44
2023-03-10T14:05:45.684Z,97735.31
2023-03-10T14:08:48.452Z,97713.31
2023-03-10T14:11:53.075Z,97731.28
2023-03-10T14:15:10.092Z,97750.78
2023-03-10T14:18:20.548Z,97736.91
2023-03-10T14:21:33.436Z,97722.31
2023-03-10T14:24:38.276Z,97733.47
2023-03-10T14:27:43.010Z,97724.59
2023-03-10T14:30:47.036Z,97732.00
2023-03-10T14:33:53.516Z,97733.31
2023-03-10T14:37:02.345Z,97749.00
2023-03-10T14:40:06.317Z,97735.88
2023-03-10T14:43:15.727Z,97738.84
2023-03-10T14:46:20.742Z,97739.16
2023-03-10T14:49:37.672Z,97746.56
2023-03-10T14:52:41.192Z,97753.41
2023-03-10T14:55:49.066Z,97752.88
2023-03-10T14:59:04.728Z,97767.59
2023-03-10T15:02:22.361Z,97778.00
2023-03-10T15:05:34.746Z,97793.13
2023-03-10T15:08:58.397Z,97792.25
2023-03-10T15:12:02.293Z,97792.06
2023-03-10T15:15:08.728Z,97788.84
2023-03-10T15:18:18.245Z,97794.69
2023-03-10T15:21:21.092Z,97809.28
2023-03-10T15:24:27.076Z,97806.81
2023-03-10T15:27:38.135Z,97814.97
2023-03-10T15:30:41.891Z,97816.63
2023-03-10T15:33:45.996Z,97829.53
2023-03-10T15:36:48.786Z,97853.13
2023-03-10T15:39:51.473Z,97836.56
2023-03-10T15:42:57.343Z,97836.81
2023-03-10T15:46:00.404Z,97838.47
2023-03-10T15:49:05.259Z,97857.00
2023-03-10T15:52:08.181Z,97846.41
2023-03-10T15:55:11.054Z,97878.59
2023-03-10T15:58:18.837Z,97870.13
2023-03-10T16:01:21.747Z,97885.31
2023-03-10T16:04:26.026Z,97884.44
2023-03-10T16:07:33.640Z,97883.91
2023-03-10T16:10:40.290Z,97897.03
2023-03-10T16:13:46.661Z,97911.50
2023-03-10T16:16:49.437Z,97902.22
2023-03-10T16:19:53.619Z,97923.75
2023-03-10T16:22:56.368Z,97937.31
2023-03-10T16:26:16.253Z,97943.59
2023-03-10T16:32:46.482Z,97956.16
2023-03-10T16:35:50.668Z,97964.53
2023-03-10T16:38:54.590Z,97974.22
2023-03-10T16:41:57.305Z,97972.66
2023-03-10T16:45:25.519Z,97974.59
2023-03-10T16:48:48.362Z,97976.34
2023-03-10T16:51:53.250Z,97965.38
2023-03-10T16:55:16.824Z,97963.16
2023-03-10T16:58:33.874Z,97969.81
2023-03-10T17:01:44.355Z,97990.06
2023-03-10T17:04:47.177Z,97978.75
2023-03-10T17:07:55.982Z,97987.53
2023-03-10T17:10:59.113Z,98005.03
2023-03-10T17:14:03.742Z,98004.41
2023-03-10T17:17:07.839Z,98008.41
2023-03-10T17:20:20.274Z,98003.88
2023-03-10T17:23:24.472Z,97991.59
2023-03-10T17:26:27.414Z,97999.91
2023-03-10T17:29:30.163Z,98004.47
2023-03-10T17:32:32.925Z,98015.66
2023-03-10T17:35:44.305Z,98022.41
2023-03-10T17:38:49.048Z,98010.97
2023-03-10T17:41:52.167Z,98022.88
2023-03-10T17:44:54.973Z,98025.19
2023-03-10T17:47:57.859Z,98018.94
2023-03-10T17:51:00.961Z,98042.59
2023-03-10T17:54:05.338Z,98036.44
2023-03-10T17:57:08.233Z,98043.19
2023-03-10T18:00:13.216Z,98052.38
2023-03-10T18:03:17.159Z,98054.78
2023-03-10T18:06:23.404Z,98045.97
2023-03-10T18:09:27.483Z,98038.94
2023-03-10T18:12:30.182Z,98040.88
2023-03-10T18:15:33.253Z,98075.97
2023-03-10T18:18:36.824Z,98078.75
2023-03-10T18:21:39.728Z,98104.22
2023-03-10T18:24:44.092Z,98089.91
2023-03-10T18:27:47.380Z,98097.66
2023-03-10T18:30:51.912Z,98093.38
2023-03-10T18:33:54.768Z,98092.09
2023-03-10T18:37:01.041Z,98093.94
2023-03-10T18:40:10.157Z,98099.09
2023-03-10T18:43:13.007Z,98100.50
2023-03-10T18:46:15.845Z,98091.03
2023-03-10T18:49:18.667Z,98092.97
2023-03-10T18:52:21.401Z,98095.78
2023-03-10T18:55:27.651Z,98103.56
2023-03-10T18:58:30.692Z,98121.91
2023-03-10T19:01:34.146Z,98102.38
2023-03-10T19:04:38.064Z,98104.66
2023-03-10T19:07:41.633Z,98103.91
2023-03-10T19:10:54.488Z,98121.50
2023-03-10T19:13:58.436Z,98159.03
2023-03-10T19:17:10.847Z,98182.97
2023-03-10T19:20:15.363Z,98227.38
2023-03-10T19:23:18.682Z,98255.97
2023-03-10T19:26:24.378Z,98305.19
2023-03-10T19:29:28.292Z,98317.81
2023-03-10T19:32:31.785Z,98324.16
2023-03-10T19:35:35.497Z,98339.22
2023-03-10T19:38:39.310Z,98316.44
2023-03-10T19:41:44.566Z,98343.03
2023-03-10T19:44:47.772Z,98373.31
2023-03-10T19:51:21.904Z,98376.44
2023-03-10T19:54:25.639Z,98399.34
2023-03-10T19:57:30.713Z,98428.94
2023-03-10T20:00:36.244Z,98418.69
2023-03-10T20:03:40.201Z,98429.72
2023-03-10T20:07:04.624Z,98451.94
2023-03-10T20:10:09.548Z,98462.50
2023-03-10T20:13:14.027Z,98433.88
2023-03-10T20:16:17.847Z,98462.69
2023-03-10T20:19:22.759Z,98490.09
2023-03-10T20:22:26.479Z,98504.03
2023-03-10T20:25:29.339Z,98538.25
2023-03-10T20:28:34.809Z,98552.75
2023-03-10T20:31:38.515Z,98566.34
2023-03-10T20:34:41.363Z,98593.75
2023-03-10T20:37:44.160Z,98563.88
2023-03-10T20:40:46.968Z,98605.09
2023-03-10T20:43:51.324Z,98636.50
2023-03-10T20:46:54.086Z,98653.03
2023-03-10T20:49:57.358Z,98640.94
2023-03-10T20:56:23.441Z,98671.25
2023-03-10T20:59:28.024Z,98700.22
2023-03-10T21:02:30.666Z,98697.53
2023-03-10T21:05:33.492Z,98697.53
2023-03-10T21:08:36.358Z,98716.50
2023-03-10T21:11:40.518Z,98724.34
2023-03-10T21:14:44.583Z,98737.13
2023-03-10T21:17:48.084Z,98750.25
2023-03-10T21:20:50.846Z,98756.25
2023-03-10T21:23:53.558Z,98792.75
2023-03-10T21:26:56.572Z,98776.84
2023-03-10T21:30:01.904Z,98772.28
2023-03-10T21:33:04.799Z,98795.78
2023-03-10T21:36:08.731Z,98835.75
2023-03-10T21:39:11.616Z,98811.38
2023-03-10T21:42:15.299Z,98825.50
2023-03-10T21:45:22.536Z,98820.81
2023-03-10T21:48:25.267Z,98807.47
2023-03-10T21:51:28.528Z,98806.00
2023-03-10T21:54:31.249Z,98812.06
2023-03-10T21:57:34.156Z,98818.72
2023-03-10T22:00:38.990Z,98831.06
2023-03-10T22:03:42.258Z,98842.16
2023-03-10T22:06:44.966Z,98849.19
2023-03-10T22:09:48.223Z,98860.06
2023-03-10T22:12:50.944Z,98860.19
2023-03-10T22:15:55.244Z,98871.31
2023-03-10T22:18:58.547Z,98859.25
2023-03-10T22:22:02.447Z,98881.09
2023-03-10T22:25:05.650Z,98881.16
2023-03-10T22:28:08.506Z,98901.75
2023-03-10T22:31:12.938Z,98866.03
2023-03-10T22:34:15.858Z,98920.13
2023-03-10T22:37:18.521Z,98911.53
2023-03-10T22:40:25.133Z,98932.97
2023-03-10T22:43:28.326Z,98946.09
2023-03-10T22:46:32.705Z,98937.13
2023-03-10T22:49:35.448Z,98967.66
2023-03-10T22:52:38.530Z,98942.47
2023-03-10T22:55:43.511Z,98959.88
2023-03-10T22:58:46.222Z,98960.25
2023-03-10T23:01:50.580Z,98962.81
2023-03-10T23:04:53.277Z,98986.84
2023-03-10T23:07:56.384Z,98951.19
2023-03-10T23:10:59.153Z,99007.28
2023-03-10T23:14:03.769Z,99015.63
2023-03-10T23:17:08.341Z,99030.94
2023-03-10T23:20:13.984Z,99019.22
2023-03-10T23:23:18.194Z,99039.25
2023-03-10T23:26:21.402Z,99047.31
2023-03-10T23:29:24.122Z,99049.44
2023-03-10T23:32:28.194Z,99049.25
2023-03-10T23:35:32.839Z,99062.69
2023-03-10T23:38:36.019Z,99055.41
2023-03-10T23:41:38.678Z,99081.81
2023-03-10T23:44:41.392Z,99083.69
2023-03-10T23:47:46.379Z,99074.31
2023-03-10T23:50:50.591Z,99077.91
2023-03-10T23:53:53.323Z,99089.13
2023-03-10T23:56:56.048Z,99081.63
2023-03-10T23:59:59.128Z,99071.41
